Map

Track Data

SID SEASON NUMBER BASIN SUBBASIN NAME ISO_TIME NATURE LAT LON WMO_WIND WMO_PRES WMO_AGENCY TRACK_TYPE DIST2LAND LANDFALL IFLAG USA_AGENCY USA_ATCF_ID USA_LAT USA_LON USA_RECORD USA_STATUS USA_WIND USA_PRES USA_SSHS USA_R34_NE USA_R34_SE USA_R34_SW USA_R34_NW USA_R50_NE USA_R50_SE USA_R50_SW USA_R50_NW USA_R64_NE USA_R64_SE USA_R64_SW USA_R64_NW USA_POCI USA_ROCI USA_RMW USA_EYE TOKYO_LAT TOKYO_LON TOKYO_GRADE TOKYO_WIND TOKYO_PRES TOKYO_R50_DIR TOKYO_R50_LONG TOKYO_R50_SHORT TOKYO_R30_DIR TOKYO_R30_LONG TOKYO_R30_SHORT TOKYO_LAND CMA_LAT CMA_LON CMA_CAT CMA_WIND CMA_PRES HKO_LAT HKO_LON HKO_CAT HKO_WIND HKO_PRES NEWDELHI_LAT NEWDELHI_LON NEWDELHI_GRADE NEWDELHI_WIND NEWDELHI_PRES NEWDELHI_CI NEWDELHI_DP NEWDELHI_POCI REUNION_LAT REUNION_LON REUNION_TYPE REUNION_WIND REUNION_PRES REUNION_TNUM REUNION_CI REUNION_RMW REUNION_R34_NE REUNION_R34_SE REUNION_R34_SW REUNION_R34_NW REUNION_R50_NE REUNION_R50_SE REUNION_R50_SW REUNION_R50_NW REUNION_R64_NE REUNION_R64_SE REUNION_R64_SW REUNION_R64_NW BOM_LAT BOM_LON BOM_TYPE BOM_WIND BOM_PRES BOM_TNUM BOM_CI BOM_RMW BOM_R34_NE BOM_R34_SE BOM_R34_SW BOM_R34_NW BOM_R50_NE BOM_R50_SE BOM_R50_SW BOM_R50_NW BOM_R64_NE BOM_R64_SE BOM_R64_SW BOM_R64_NW BOM_ROCI BOM_POCI BOM_EYE BOM_POS_METHOD BOM_PRES_METHOD NADI_LAT NADI_LON NADI_CAT NADI_WIND NADI_PRES WELLINGTON_LAT WELLINGTON_LON WELLINGTON_WIND WELLINGTON_PRES DS824_LAT DS824_LON DS824_STAGE DS824_WIND DS824_PRES TD9636_LAT TD9636_LON TD9636_STAGE TD9636_WIND TD9636_PRES TD9635_LAT TD9635_LON TD9635_WIND TD9635_PRES TD9635_ROCI NEUMANN_LAT NEUMANN_LON NEUMANN_CLASS NEUMANN_WIND NEUMANN_PRES MLC_LAT MLC_LON MLC_CLASS MLC_WIND MLC_PRES USA_GUST BOM_GUST BOM_GUST_PER REUNION_GUST REUNION_GUST_PER USA_SEAHGT USA_SEARAD_NE USA_SEARAD_SE USA_SEARAD_SW USA_SEARAD_NW STORM_SPEED STORM_DIR
1919321N13127 1919 49 WP MM NOT_NAMED 1919-11-16 22:00:00 NR 12.7000 126.500 main 122 112 __________O___ -1 12.7000 126.500 2 4 270
1919321N13127 1919 49 WP MM NOT_NAMED 1919-11-17 00:00:00 NR 12.7001 126.359 main 112 85 __________P___ -1 12.7001 126.359 2 4 270
1919321N13127 1919 49 WP MM NOT_NAMED 1919-11-17 03:00:00 NR 12.7001 126.143 main 85 70 __________P___ -1 12.7001 126.143 2 4 270
1919321N13127 1919 49 WP MM NOT_NAMED 1919-11-17 06:00:00 NR 12.7001 125.920 main 70 54 __________P___ -1 12.7001 125.920 2 4 270
1919321N13127 1919 49 WP MM NOT_NAMED 1919-11-17 09:00:00 NR 12.7000 125.683 main 54 46 __________P___ -1 12.7000 125.683 2 5 270
1919321N13127 1919 49 WP MM NOT_NAMED 1919-11-17 10:00:00 NR 12.7000 125.600 main 46 31 __________O___ -1 12.7000 125.600 2 5 270
1919321N13127 1919 49 WP MM NOT_NAMED 1919-11-17 12:00:00 NR 12.7000 125.428 main 31 22 __________P___ -1 12.7000 125.428 2 5 270
1919321N13127 1919 49 WP MM NOT_NAMED 1919-11-17 15:00:00 NR 12.7000 125.158 main 22 22 __________P___ -1 12.7000 125.158 2 5 270
1919321N13127 1919 49 WP MM NOT_NAMED 1919-11-17 18:00:00 NR 12.7000 124.878 main 22 22 __________P___ -1 12.7000 124.878 2 6 270
1919321N13127 1919 49 WP MM NOT_NAMED 1919-11-17 21:00:00 NR 12.7000 124.594 main 22 22 __________P___ -1 12.7000 124.594 2 6 270
1919321N13127 1919 49 WP MM NOT_NAMED 1919-11-17 22:00:00 NR 12.7000 124.500 main 22 21 __________O___ -1 12.7000 124.500 2 5 270
1919321N13127 1919 49 WP MM NOT_NAMED 1919-11-18 00:00:00 NR 12.6999 124.319 main 21 0 __________P___ -1 12.6999 124.319 2 5 270
1919321N13127 1919 49 WP MM NOT_NAMED 1919-11-18 03:00:00 NR 12.6998 124.048 main 0 0 __________P___ -1 12.6998 124.048 2 5 270
1919321N13127 1919 49 WP MM NOT_NAMED 1919-11-18 06:00:00 NR 12.6999 123.775 main 0 0 __________P___ -1 12.6999 123.775 2 5 270
1919321N13127 1919 49 WP MM NOT_NAMED 1919-11-18 09:00:00 NR 12.7000 123.495 main 24 22 __________P___ -1 12.7000 123.495 2 5 270
1919321N13127 1919 49 WP MM NOT_NAMED 1919-11-18 10:00:00 NR 12.7000 123.400 main 22 22 __________O___ -1 12.7000 123.400 2 5 271
1919321N13127 1919 49 WP MM NOT_NAMED 1919-11-18 12:00:00 NR 12.7024 123.224 main 24 24 __________P___ -1 12.7024 123.224 2 5 271
1919321N13127 1919 49 WP MM NOT_NAMED 1919-11-18 15:00:00 NR 12.7061 122.954 main 39 48 __________P___ -1 12.7061 122.954 2 6 271
1919321N13127 1919 49 WP MM NOT_NAMED 1919-11-18 18:00:00 NR 12.7074 122.661 main 55 55 __________P___ -1 12.7074 122.661 2 6 270
1919321N13127 1919 49 WP MM NOT_NAMED 1919-11-18 21:00:00 NR 12.7032 122.325 main 64 64 __________P___ -1 12.7032 122.325 2 7 269
1919321N13127 1919 49 WP MM NOT_NAMED 1919-11-18 22:00:00 NR 12.7000 122.200 main 66 34 __________O___ -1 12.7000 122.200 2 8 268
1919321N13127 1919 49 WP MM NOT_NAMED 1919-11-19 00:00:00 NR 12.6918 121.918 main 34 0 __________P___ -1 12.6918 121.918 2 9 268
1919321N13127 1919 49 WP MM NOT_NAMED 1919-11-19 03:00:00 NR 12.6732 121.451 main 0 0 __________P___ -1 12.6732 121.451 2 9 267
1919321N13127 1919 49 WP MM NOT_NAMED 1919-11-19 06:00:00 NR 12.6469 120.956 main 0 0 __________P___ -1 12.6469 120.956 2 10 266
1919321N13127 1919 49 WP MM NOT_NAMED 1919-11-19 09:00:00 NR 12.6130 120.460 main 34 44 __________P___ -1 12.6130 120.460 2 10 266
1919321N13127 1919 49 WP MM NOT_NAMED 1919-11-19 10:00:00 NR 12.6000 120.300 main 55 55 __________O___ -1 12.6000 120.300 2 9 266
1919321N13127 1919 49 WP MM NOT_NAMED 1919-11-19 12:00:00 NR 12.5775 119.992 main 86 86 __________P___ -1 12.5775 119.992 2 9 265
1919321N13127 1919 49 WP MM NOT_NAMED 1919-11-19 15:00:00 NR 12.5378 119.543 main 132 132 __________P___ -1 12.5378 119.543 2 9 264
1919321N13127 1919 49 WP MM NOT_NAMED 1919-11-19 18:00:00 NR 12.4878 119.116 main 141 141 __________P___ -1 12.4878 119.116 2 8 262
1919321N13127 1919 49 WP MM NOT_NAMED 1919-11-19 21:00:00 NR 12.4246 118.722 main 150 150 __________P___ -1 12.4246 118.722 2 8 260
1919321N13127 1919 49 WP MM NOT_NAMED 1919-11-19 22:00:00 NR 12.4000 118.600 main 157 157 __________O___ -1 12.4000 118.600 2 7 257
1919321N13127 1919 49 WP MM NOT_NAMED 1919-11-20 00:00:00 NR 12.3445 118.374 main 164 164 __________P___ -1 12.3445 118.374 2 7 254
1919321N13127 1919 49 WP MM NOT_NAMED 1919-11-20 03:00:00 NR 12.2488 118.067 main 180 180 __________P___ -1 12.2488 118.067 2 6 251
1919321N13127 1919 49 WP MM NOT_NAMED 1919-11-20 06:00:00 NR 12.1438 117.781 main 201 201 __________P___ -1 12.1438 117.781 2 6 249
1919321N13127 1919 49 WP MM NOT_NAMED 1919-11-20 09:00:00 NR 12.0357 117.497 main 225 225 __________P___ -1 12.0357 117.497 2 6 249
1919321N13127 1919 49 WP MM NOT_NAMED 1919-11-20 10:00:00 NR 12.0000 117.400 main 235 235 __________O___ -1 12.0000 117.400 2 6 250
1919321N13127 1919 49 WP MM NOT_NAMED 1919-11-20 12:00:00 NR 11.9280 117.192 main 252 252 __________P___ -1 11.9280 117.192 2 7 251
1919321N13127 1919 49 WP MM NOT_NAMED 1919-11-20 15:00:00 NR 11.8200 116.873 main 280 280 __________P___ -1 11.8200 116.873 2 7 252
1919321N13127 1919 49 WP MM NOT_NAMED 1919-11-20 18:00:00 NR 11.7174 116.547 main 308 308 __________P___ -1 11.7174 116.547 2 7 253
1919321N13127 1919 49 WP MM NOT_NAMED 1919-11-20 21:00:00 NR 11.6266 116.213 main 320 320 __________P___ -1 11.6266 116.213 2 7 255
1919321N13127 1919 49 WP MM NOT_NAMED 1919-11-20 22:00:00 NR 11.6000 116.100 main 326 326 __________O___ -1 11.6000 116.100 2 7 258
1919321N13127 1919 49 WP MM NOT_NAMED 1919-11-21 00:00:00 NR 11.5552 115.872 main 339 338 __________P___ -1 11.5552 115.872 2 7 260
1919321N13127 1919 49 WP MM NOT_NAMED 1919-11-21 03:00:00 NR 11.5006 115.525 main 360 360 __________P___ -1 11.5006 115.525 2 7 262
1919321N13127 1919 49 WP MM NOT_NAMED 1919-11-21 06:00:00 NR 11.4557 115.172 main 383 383 __________P___ -1 11.4557 115.172 2 7 263
1919321N13127 1919 49 WP MM NOT_NAMED 1919-11-21 09:00:00 NR 11.4142 114.818 main 407 407 __________P___ -1 11.4142 114.818 2 7 263
1919321N13127 1919 49 WP MM NOT_NAMED 1919-11-21 10:00:00 NR 11.4000 114.700 main 415 415 __________O___ -1 11.4000 114.700 3 7 264
1919321N13127 1919 49 WP MM NOT_NAMED 1919-11-21 12:00:00 NR 11.3771 114.464 main 431 440 __________P___ -1 11.3771 114.464 3 7 264
1919321N13127 1919 49 WP MM NOT_NAMED 1919-11-21 15:00:00 NR 11.3430 114.110 main 459 459 __________P___ -1 11.3430 114.110 3 7 263
1919321N13127 1919 49 WP MM NOT_NAMED 1919-11-21 18:00:00 NR 11.2982 113.759 main 486 452 __________P___ -1 11.2982 113.759 3 7 261
1919321N13127 1919 49 WP MM NOT_NAMED 1919-11-21 21:00:00 NR 11.2300 113.413 main 452 442 __________P___ -1 11.2300 113.413 3 7 258
1919321N13127 1919 49 WP MM NOT_NAMED 1919-11-21 22:00:00 NR 11.2000 113.300 main 442 423 __________O___ -1 11.2000 113.300 4 7 251
1919321N13127 1919 49 WP MM NOT_NAMED 1919-11-22 00:00:00 NR 11.1175 113.080 main 423 394 __________P___ -1 11.1175 113.080 4 7 246
1919321N13127 1919 49 WP MM NOT_NAMED 1919-11-22 03:00:00 NR 10.9684 112.757 main 394 359 __________P___ -1 10.9684 112.757 4 7 244
1919321N13127 1919 49 WP MM NOT_NAMED 1919-11-22 06:00:00 NR 10.8057 112.436 main 359 333 __________P___ -1 10.8057 112.436 4 7 243
1919321N13127 1919 49 WP MM NOT_NAMED 1919-11-22 09:00:00 NR 10.6482 112.110 main 338 328 __________P___ -1 10.6482 112.110 4 7 244
1919321N13127 1919 49 WP MM NOT_NAMED 1919-11-22 10:00:00 NR 10.6000 112.000 main 328 314 __________O___ -1 10.6000 112.000 4 7 248
1919321N13127 1919 49 WP MM NOT_NAMED 1919-11-22 12:00:00 NR 10.5131 111.775 main 314 280 __________P___ -1 10.5131 111.775 4 7 251
1919321N13127 1919 49 WP MM NOT_NAMED 1919-11-22 15:00:00 NR 10.4029 111.430 main 280 260 __________P___ -1 10.4029 111.430 4 7 254
1919321N13127 1919 49 WP MM NOT_NAMED 1919-11-22 18:00:00 NR 10.3100 111.077 main 260 229 __________P___ -1 10.3100 111.077 4 7 256
1919321N13127 1919 49 WP MM NOT_NAMED 1919-11-22 21:00:00 NR 10.2269 110.719 main 229 220 __________P___ -1 10.2269 110.719 4 7 257
1919321N13127 1919 49 WP MM NOT_NAMED 1919-11-22 22:00:00 NR 10.2000 110.600 main 220 __________O___ -1 10.2000 110.600 4 7 257

Digital Typhoon Data and Search

About IBTrACS Database

This database is a web-friendly format of International Best Track Archive for Climate Stewardship (IBTrACS), a global best track data archive curated by NOAA dating back to 1842.

Updated: 2021-12-08